METAR Data
IDs: Format: Raw Decoded Include TAF

Data at: 0806 UTC 03 Aug 2021

KMRY 030754Z AUTO 30004KT 10SM OVC007 16/13 A3007 RMK AO2 SLP193 T01610128 402280139
KMRY 030654Z AUTO 29005KT 10SM OVC007 16/13 A3007 RMK AO2 SLP194 T01610133
KMRY 030554Z AUTO 27004KT 10SM OVC006 16/13 A3007 RMK AO2 SLP194 T01610133 10217 20161 50004
KMRY 030454Z AUTO 30006KT 10SM OVC008 17/13 A3008 RMK AO2 SLP195 T01670133
KMRY 030441Z AUTO 31006KT 10SM OVC008 17/13 A3007 RMK AO2 CIG 007V010 T01670133
KMRY 030354Z AUTO 31004KT 10SM OVC010 18/13 A3007 RMK AO2 SLP192 T01780133
KMRY 030311Z 31005KT 10SM BKN014 18/14 A3006 RMK AO2 T01780139
KMRY 030254Z 31007KT 10SM SCT014 18/13 A3006 RMK AO2 SLP190 T01780133 55001
KMRY 030154Z 32009KT 10SM CLR 20/13 A3006 RMK AO2 SLP189 T02000133
KMRY 030054Z 32009KT 10SM CLR 21/13 A3006 RMK AO2 SLP191 T02060128
KMRY 022354Z 01009KT 10SM CLR 22/13 A3006 RMK AO2 SLP191 T02170128 10228 20194 56013
KMRY 022254Z 33007KT 10SM CLR 22/13 A3008 RMK AO2 SLP195 T02170128
KMRY 022154Z 33011KT 10SM CLR 22/13 A3009 RMK AO2 SLP199 T02220128
KMRY 022054Z 35008KT 10SM CLR 22/13 A3010 RMK AO2 SLP204 T02170128 58008
KMRY 021954Z 35009KT 10SM CLR 21/13 A3012 RMK AO2 SLP209 T02060128
KMRY 021854Z 34006KT 10SM CLR 21/13 A3013 RMK AO2 SLP213 T02060128
KMRY 021754Z 34005KT 10SM CLR 19/13 A3013 RMK AO2 SLP212 T01940128 10194 20161 58001
KMRY 021719Z 27005KT 10SM SCT012 19/13 A3013 RMK AO2 T01890128
KMRY 021654Z 30005KT 10SM OVC012 18/13 A3013 RMK AO2 SLP214 T01830128
KMRY 021605Z VRB03KT 10SM OVC010 17/13 A3013 RMK AO2 T01720128
KMRY 021554Z 32003KT 10SM OVC009 17/12 A3013 RMK AO2 SLP213 T01670122
KMRY 021454Z 00000KT 10SM OVC009 16/13 A3013 RMK AO2 SLP213 T01610128 52014
KMRY 021354Z 07003KT 10SM OVC009 16/13 A3012 RMK AO2 SLP210 T01610128 $
KMRY 021254Z AUTO 09003KT 10SM OVC009 16/12 A3010 RMK AO2 SLP203 T01610122 $
KMRY 021246Z AUTO 00000KT 10SM OVC009 16/13 A3010 RMK AO2 T01610128 $
KMRY 021154Z AUTO 00000KT 10SM OVC011 17/12 A3009 RMK AO2 SLP200 T01670122 10167 20139 55005 $
KMRY 021054Z AUTO 12004KT 10SM OVC013 16/12 A3009 RMK AO2 SLP199 T01560117 $
KMRY 020954Z AUTO 11004KT 10SM OVC014 14/11 A3009 RMK AO2 SLP201 T01440106 $
KMRY 020920Z AUTO 11004KT 10SM BKN014 14/10 A3010 RMK AO2 T01390100 $
KMRY 020854Z AUTO 00000KT 10SM SCT014 14/11 A3010 RMK AO2 SLP204 T01440106 58002 $
KMRY 020754Z AUTO 12005KT 10SM CLR 15/11 A3011 RMK AO2 SLP207 T01500111 402280150 $
KMRY 020654Z AUTO 11004KT 10SM CLR 15/11 A3011 RMK AO2 SLP207 T01500111 $
KMRY 020554Z AUTO 11004KT 10SM CLR 16/11 A3011 RMK AO2 SLP206 T01560111 10222 20150 51008 $
KMRY 020454Z AUTO 00000KT 10SM CLR 18/12 A3010 RMK AO2 SLP205 T01780122 $
KMRY 020354Z AUTO 29003KT 10SM CLR 18/12 A3009 RMK AO2 SLP201 T01830122 $
KMRY 020254Z 28006KT 10SM CLR 19/12 A3008 RMK AO2 SLP198 T01940122 53002 $
KMRY 020154Z 25010KT 10SM CLR 21/12 A3008 RMK AO2 SLP196 T02060122 $
KMRY 020054Z 26012KT 10SM CLR 22/12 A3007 RMK AO2 SLP195 T02170122 $
KMRY 012354Z 27012KT 10SM CLR 22/12 A3008 RMK AO2 SLP196 T02220122 10228 20183 58005 $
KMRY 012254Z 26010KT 10SM CLR 22/12 A3009 RMK AO2 SLP198 T02220122 $
KMRY 012154Z 26013KT 10SM CLR 22/12 A3009 RMK AO2 SLP201 T02220122 $
KMRY 012054Z 26011KT 10SM CLR 22/12 A3009 RMK AO2 SLP201 T02220122 58005 $